sensor_id;sensor_type;location;lat;lon;timestamp;P1;durP1;ratioP1;P2;durP2;ratioP2
23242;SDS011;11790;49.578;11.214;2024-03-02T00:03:42;47.97;;;23.70;;
23242;SDS011;11790;49.578;11.214;2024-03-02T00:08:44;44.10;;;22.33;;
23242;SDS011;11790;49.578;11.214;2024-03-02T00:13:44;43.10;;;22.40;;
23242;SDS011;11790;49.578;11.214;2024-03-02T00:18:45;49.47;;;23.25;;
23242;SDS011;11790;49.578;11.214;2024-03-02T00:23:45;46.08;;;23.05;;
23242;SDS011;11790;49.578;11.214;2024-03-02T00:28:45;46.30;;;23.73;;
23242;SDS011;11790;49.578;11.214;2024-03-02T00:33:46;46.85;;;22.88;;
23242;SDS011;11790;49.578;11.214;2024-03-02T00:38:47;48.28;;;22.20;;
23242;SDS011;11790;49.578;11.214;2024-03-02T00:44:03;45.85;;;22.92;;
23242;SDS011;11790;49.578;11.214;2024-03-02T00:49:26;42.83;;;22.20;;
23242;SDS011;11790;49.578;11.214;2024-03-02T00:54:26;45.17;;;22.27;;
23242;SDS011;11790;49.578;11.214;2024-03-02T00:59:28;49.63;;;23.88;;
23242;SDS011;11790;49.578;11.214;2024-03-02T01:04:29;43.83;;;23.02;;
23242;SDS011;11790;49.578;11.214;2024-03-02T01:09:31;44.80;;;23.05;;
23242;SDS011;11790;49.578;11.214;2024-03-02T01:14:31;44.63;;;23.77;;
23242;SDS011;11790;49.578;11.214;2024-03-02T01:19:31;46.78;;;22.50;;
23242;SDS011;11790;49.578;11.214;2024-03-02T01:24:31;39.45;;;20.85;;
23242;SDS011;11790;49.578;11.214;2024-03-02T01:29:31;45.40;;;22.33;;
23242;SDS011;11790;49.578;11.214;2024-03-02T01:34:31;45.05;;;23.20;;
23242;SDS011;11790;49.578;11.214;2024-03-02T01:39:32;54.78;;;26.23;;
23242;SDS011;11790;49.578;11.214;2024-03-02T01:44:32;42.88;;;22.33;;
23242;SDS011;11790;49.578;11.214;2024-03-02T01:49:32;46.50;;;24.02;;
23242;SDS011;11790;49.578;11.214;2024-03-02T01:54:34;60.53;;;27.45;;
23242;SDS011;11790;49.578;11.214;2024-03-02T01:59:34;59.42;;;27.67;;
23242;SDS011;11790;49.578;11.214;2024-03-02T02:04:34;39.90;;;21.70;;
23242;SDS011;11790;49.578;11.214;2024-03-02T02:09:35;41.42;;;20.92;;
23242;SDS011;11790;49.578;11.214;2024-03-02T02:14:35;46.03;;;23.42;;
23242;SDS011;11790;49.578;11.214;2024-03-02T02:19:35;44.33;;;22.40;;
23242;SDS011;11790;49.578;11.214;2024-03-02T02:24:35;47.03;;;21.98;;
23242;SDS011;11790;49.578;11.214;2024-03-02T02:29:36;46.60;;;23.77;;
23242;SDS011;11790;49.578;11.214;2024-03-02T02:34:36;46.65;;;23.30;;
23242;SDS011;11790;49.578;11.214;2024-03-02T02:39:36;40.38;;;21.40;;
23242;SDS011;11790;49.578;11.214;2024-03-02T02:44:36;43.10;;;22.33;;
23242;SDS011;11790;49.578;11.214;2024-03-02T02:49:36;44.83;;;23.40;;
23242;SDS011;11790;49.578;11.214;2024-03-02T02:54:37;53.85;;;24.30;;
23242;SDS011;11790;49.578;11.214;2024-03-02T02:59:38;46.47;;;23.08;;
23242;SDS011;11790;49.578;11.214;2024-03-02T03:04:39;43.42;;;23.02;;
23242;SDS011;11790;49.578;11.214;2024-03-02T03:09:39;44.17;;;24.25;;
23242;SDS011;11790;49.578;11.214;2024-03-02T03:14:40;48.10;;;22.90;;
23242;SDS011;11790;49.578;11.214;2024-03-02T03:19:40;47.22;;;23.05;;
23242;SDS011;11790;49.578;11.214;2024-03-02T03:24:41;47.15;;;24.08;;
23242;SDS011;11790;49.578;11.214;2024-03-02T03:29:41;47.55;;;23.17;;
23242;SDS011;11790;49.578;11.214;2024-03-02T03:34:41;47.75;;;24.70;;
23242;SDS011;11790;49.578;11.214;2024-03-02T03:39:41;54.67;;;25.08;;
23242;SDS011;11790;49.578;11.214;2024-03-02T03:44:41;52.30;;;25.60;;
23242;SDS011;11790;49.578;11.214;2024-03-02T03:49:42;48.50;;;24.60;;
23242;SDS011;11790;49.578;11.214;2024-03-02T03:54:42;47.25;;;23.20;;
23242;SDS011;11790;49.578;11.214;2024-03-02T03:59:43;47.75;;;22.40;;
23242;SDS011;11790;49.578;11.214;2024-03-02T04:04:43;50.37;;;22.37;;
23242;SDS011;11790;49.578;11.214;2024-03-02T04:09:43;42.90;;;20.97;;
23242;SDS011;11790;49.578;11.214;2024-03-02T04:14:43;42.58;;;21.90;;
23242;SDS011;11790;49.578;11.214;2024-03-02T04:19:44;49.88;;;22.77;;
23242;SDS011;11790;49.578;11.214;2024-03-02T04:24:44;44.05;;;21.70;;
23242;SDS011;11790;49.578;11.214;2024-03-02T04:29:44;44.85;;;20.52;;
23242;SDS011;11790;49.578;11.214;2024-03-02T04:34:45;40.58;;;20.08;;
23242;SDS011;11790;49.578;11.214;2024-03-02T04:39:46;34.90;;;20.17;;
23242;SDS011;11790;49.578;11.214;2024-03-02T04:44:46;43.83;;;21.35;;
23242;SDS011;11790;49.578;11.214;2024-03-02T04:49:48;38.95;;;19.13;;
23242;SDS011;11790;49.578;11.214;2024-03-02T04:54:48;46.95;;;20.48;;
23242;SDS011;11790;49.578;11.214;2024-03-02T05:00:08;40.55;;;20.63;;
23242;SDS011;11790;49.578;11.214;2024-03-02T05:05:08;39.08;;;20.80;;
23242;SDS011;11790;49.578;11.214;2024-03-02T05:10:09;38.95;;;19.83;;
23242;SDS011;11790;49.578;11.214;2024-03-02T05:15:09;37.00;;;18.17;;
23242;SDS011;11790;49.578;11.214;2024-03-02T05:20:10;36.70;;;18.05;;
23242;SDS011;11790;49.578;11.214;2024-03-02T05:25:10;37.72;;;18.20;;
23242;SDS011;11790;49.578;11.214;2024-03-02T05:30:10;34.37;;;18.47;;
23242;SDS011;11790;49.578;11.214;2024-03-02T05:35:13;36.50;;;18.05;;
23242;SDS011;11790;49.578;11.214;2024-03-02T05:40:13;35.17;;;17.88;;
23242;SDS011;11790;49.578;11.214;2024-03-02T05:45:13;40.33;;;18.00;;
23242;SDS011;11790;49.578;11.214;2024-03-02T05:50:16;40.00;;;18.73;;
23242;SDS011;11790;49.578;11.214;2024-03-02T05:55:17;40.95;;;19.45;;
23242;SDS011;11790;49.578;11.214;2024-03-02T06:00:17;39.45;;;19.52;;
23242;SDS011;11790;49.578;11.214;2024-03-02T06:05:17;38.00;;;18.97;;
23242;SDS011;11790;49.578;11.214;2024-03-02T06:10:18;41.38;;;18.75;;
23242;SDS011;11790;49.578;11.214;2024-03-02T06:15:19;36.78;;;18.63;;
23242;SDS011;11790;49.578;11.214;2024-03-02T06:20:19;41.15;;;19.58;;
23242;SDS011;11790;49.578;11.214;2024-03-02T06:25:19;42.80;;;21.20;;
23242;SDS011;11790;49.578;11.214;2024-03-02T06:30:19;35.20;;;17.92;;
23242;SDS011;11790;49.578;11.214;2024-03-02T06:35:20;39.97;;;19.15;;
23242;SDS011;11790;49.578;11.214;2024-03-02T06:40:20;38.20;;;19.30;;
23242;SDS011;11790;49.578;11.214;2024-03-02T06:45:21;37.75;;;19.60;;
23242;SDS011;11790;49.578;11.214;2024-03-02T06:50:22;39.05;;;19.38;;
23242;SDS011;11790;49.578;11.214;2024-03-02T06:55:22;38.95;;;19.08;;
23242;SDS011;11790;49.578;11.214;2024-03-02T07:00:22;39.70;;;19.88;;
23242;SDS011;11790;49.578;11.214;2024-03-02T07:05:22;41.95;;;20.15;;
23242;SDS011;11790;49.578;11.214;2024-03-02T07:10:22;41.15;;;19.80;;
23242;SDS011;11790;49.578;11.214;2024-03-02T07:15:23;38.33;;;19.23;;
23242;SDS011;11790;49.578;11.214;2024-03-02T07:20:42;37.97;;;18.92;;
23242;SDS011;11790;49.578;11.214;2024-03-02T07:25:42;44.53;;;20.35;;
23242;SDS011;11790;49.578;11.214;2024-03-02T07:30:42;41.50;;;19.80;;
23242;SDS011;11790;49.578;11.214;2024-03-02T07:35:42;40.55;;;20.20;;
23242;SDS011;11790;49.578;11.214;2024-03-02T07:40:43;34.80;;;17.40;;
23242;SDS011;11790;49.578;11.214;2024-03-02T07:45:43;30.73;;;15.75;;
23242;SDS011;11790;49.578;11.214;2024-03-02T07:50:44;26.10;;;14.82;;
23242;SDS011;11790;49.578;11.214;2024-03-02T07:55:44;23.75;;;14.07;;
23242;SDS011;11790;49.578;11.214;2024-03-02T08:00:44;22.85;;;13.43;;
23242;SDS011;11790;49.578;11.214;2024-03-02T08:05:45;19.40;;;12.27;;
23242;SDS011;11790;49.578;11.214;2024-03-02T08:10:46;21.55;;;12.23;;
23242;SDS011;11790;49.578;11.214;2024-03-02T08:15:46;19.50;;;11.93;;
23242;SDS011;11790;49.578;11.214;2024-03-02T08:20:46;19.92;;;12.07;;
23242;SDS011;11790;49.578;11.214;2024-03-02T08:25:46;19.58;;;12.52;;
23242;SDS011;11790;49.578;11.214;2024-03-02T08:30:47;19.53;;;11.77;;
23242;SDS011;11790;49.578;11.214;2024-03-02T08:35:47;18.15;;;11.35;;
23242;SDS011;11790;49.578;11.214;2024-03-02T08:40:47;20.50;;;12.30;;
23242;SDS011;11790;49.578;11.214;2024-03-02T08:45:47;21.70;;;12.45;;
23242;SDS011;11790;49.578;11.214;2024-03-02T08:50:47;18.20;;;11.82;;
23242;SDS011;11790;49.578;11.214;2024-03-02T08:55:48;17.92;;;11.13;;
23242;SDS011;11790;49.578;11.214;2024-03-02T09:00:48;16.25;;;10.93;;
23242;SDS011;11790;49.578;11.214;2024-03-02T20:16:57;22.77;;;12.55;;
23242;SDS011;11790;49.578;11.214;2024-03-02T20:21:57;26.70;;;13.87;;
23242;SDS011;11790;49.578;11.214;2024-03-02T20:26:58;23.70;;;13.65;;
23242;SDS011;11790;49.578;11.214;2024-03-02T20:31:58;31.48;;;17.63;;
23242;SDS011;11790;49.578;11.214;2024-03-02T20:36:59;30.15;;;15.70;;
23242;SDS011;11790;49.578;11.214;2024-03-02T20:42:01;24.92;;;14.73;;
23242;SDS011;11790;49.578;11.214;2024-03-02T20:47:01;27.77;;;15.75;;
23242;SDS011;11790;49.578;11.214;2024-03-02T20:52:01;31.00;;;14.52;;
23242;SDS011;11790;49.578;11.214;2024-03-02T20:57:01;26.87;;;15.13;;
23242;SDS011;11790;49.578;11.214;2024-03-02T21:02:05;28.65;;;14.88;;
23242;SDS011;11790;49.578;11.214;2024-03-02T21:07:06;28.65;;;15.27;;
23242;SDS011;11790;49.578;11.214;2024-03-02T21:12:06;28.70;;;15.52;;
23242;SDS011;11790;49.578;11.214;2024-03-02T21:17:08;27.02;;;14.60;;
23242;SDS011;11790;49.578;11.214;2024-03-02T21:22:08;25.98;;;14.70;;
23242;SDS011;11790;49.578;11.214;2024-03-02T21:27:09;28.42;;;15.63;;
23242;SDS011;11790;49.578;11.214;2024-03-02T21:32:10;25.48;;;15.07;;
23242;SDS011;11790;49.578;11.214;2024-03-02T21:37:10;28.80;;;14.38;;
23242;SDS011;11790;49.578;11.214;2024-03-02T21:42:11;29.92;;;15.68;;
23242;SDS011;11790;49.578;11.214;2024-03-02T21:47:11;28.17;;;14.82;;
23242;SDS011;11790;49.578;11.214;2024-03-02T21:52:11;24.88;;;14.27;;
23242;SDS011;11790;49.578;11.214;2024-03-02T21:57:11;25.73;;;14.53;;
23242;SDS011;11790;49.578;11.214;2024-03-02T22:02:19;23.88;;;14.60;;
23242;SDS011;11790;49.578;11.214;2024-03-02T22:07:19;25.60;;;14.85;;
23242;SDS011;11790;49.578;11.214;2024-03-02T22:12:19;29.92;;;14.60;;
23242;SDS011;11790;49.578;11.214;2024-03-02T22:17:20;29.02;;;15.68;;
23242;SDS011;11790;49.578;11.214;2024-03-02T22:22:20;27.42;;;15.10;;
23242;SDS011;11790;49.578;11.214;2024-03-02T22:27:20;26.00;;;14.33;;
23242;SDS011;11790;49.578;11.214;2024-03-02T22:32:20;32.22;;;16.73;;
23242;SDS011;11790;49.578;11.214;2024-03-02T22:37:21;29.33;;;16.48;;
23242;SDS011;11790;49.578;11.214;2024-03-02T22:42:21;30.67;;;17.02;;
23242;SDS011;11790;49.578;11.214;2024-03-02T22:47:22;33.13;;;16.35;;
23242;SDS011;11790;49.578;11.214;2024-03-02T22:52:22;30.77;;;16.77;;
23242;SDS011;11790;49.578;11.214;2024-03-02T22:57:22;33.35;;;17.95;;
23242;SDS011;11790;49.578;11.214;2024-03-02T23:02:22;33.60;;;18.27;;
23242;SDS011;11790;49.578;11.214;2024-03-02T23:07:23;35.47;;;18.25;;
23242;SDS011;11790;49.578;11.214;2024-03-02T23:12:23;35.45;;;17.67;;
23242;SDS011;11790;49.578;11.214;2024-03-02T23:17:24;35.42;;;18.08;;
23242;SDS011;11790;49.578;11.214;2024-03-02T23:22:24;32.97;;;18.38;;
23242;SDS011;11790;49.578;11.214;2024-03-02T23:27:24;36.28;;;18.98;;
23242;SDS011;11790;49.578;11.214;2024-03-02T23:32:24;34.78;;;18.50;;
23242;SDS011;11790;49.578;11.214;2024-03-02T23:37:24;33.88;;;17.75;;
23242;SDS011;11790;49.578;11.214;2024-03-02T23:42:25;36.08;;;19.27;;
23242;SDS011;11790;49.578;11.214;2024-03-02T23:47:25;36.17;;;18.02;;
23242;SDS011;11790;49.578;11.214;2024-03-02T23:52:26;36.47;;;17.30;;
23242;SDS011;11790;49.578;11.214;2024-03-02T23:57:26;35.45;;;17.30;;
